createdAt,value
2018-08-21T00:00:47.017Z,18.97
2018-08-21T00:01:57.169Z,18.95
2018-08-21T00:03:07.291Z,18.98
2018-08-21T00:04:17.441Z,18.93
2018-08-21T00:05:27.306Z,18.93
2018-08-21T00:06:37.347Z,18.93
2018-08-21T00:07:47.221Z,18.95
2018-08-21T00:08:56.976Z,18.97
2018-08-21T00:10:07.129Z,18.94
2018-08-21T00:11:17.269Z,19.03
2018-08-21T00:12:27.419Z,19
2018-08-21T00:13:37.305Z,18.9
2018-08-21T00:14:47.470Z,18.88
2018-08-21T00:15:57.644Z,18.87
2018-08-21T00:17:07.832Z,18.93
2018-08-21T00:18:18.004Z,18.9
2018-08-21T00:19:28.133Z,18.93
2018-08-21T00:20:38.269Z,18.91
2018-08-21T00:21:48.405Z,18.95
2018-08-21T00:22:58.565Z,18.97
2018-08-21T00:24:08.358Z,18.94
2018-08-21T00:25:18.486Z,18.97
2018-08-21T00:26:28.644Z,18.98
2018-08-21T00:27:38.801Z,19
2018-08-21T00:28:48.995Z,18.94
2018-08-21T00:29:59.172Z,18.91
2018-08-21T00:31:09.306Z,18.93
2018-08-21T00:32:19.441Z,18.94
2018-08-21T00:33:29.582Z,18.9
2018-08-21T00:34:39.828Z,18.87
2018-08-21T00:35:49.973Z,18.87
2018-08-21T00:37:00.153Z,18.79
2018-08-21T00:38:10.554Z,18.8
2018-08-21T00:39:20.710Z,18.71
2018-08-21T00:40:30.871Z,18.72
2018-08-21T00:41:41.083Z,18.73
2018-08-21T00:42:50.962Z,18.72
2018-08-21T00:44:00.835Z,18.67
2018-08-21T00:45:10.963Z,18.65
2018-08-21T00:46:21.111Z,18.69
2018-08-21T00:47:31.306Z,18.67
2018-08-21T00:48:41.455Z,18.72
2018-08-21T00:49:51.593Z,18.69
2018-08-21T00:51:01.932Z,18.62
2018-08-21T00:52:11.804Z,18.72
2018-08-21T00:53:21.980Z,18.69
2018-08-21T00:54:32.332Z,18.72
2018-08-21T00:55:42.123Z,18.69
2018-08-21T00:56:52.238Z,18.72
2018-08-21T00:58:02.404Z,18.69
2018-08-21T00:59:12.581Z,18.69
2018-08-21T01:00:22.467Z,18.63
2018-08-21T01:01:32.590Z,18.56
2018-08-21T01:02:42.764Z,18.57
2018-08-21T01:03:52.630Z,18.65
2018-08-21T01:05:02.747Z,18.57
2018-08-21T01:06:12.871Z,18.6
2018-08-21T01:07:23.076Z,18.6
2018-08-21T01:08:33.287Z,18.6
2018-08-21T01:09:43.145Z,18.6
2018-08-21T01:10:53.060Z,18.65
2018-08-21T01:12:03.286Z,18.6
2018-08-21T01:13:13.159Z,18.57
2018-08-21T01:14:23.053Z,18.6
2018-08-21T01:15:33.183Z,18.57
2018-08-21T01:16:43.418Z,18.62
2018-08-21T01:17:53.559Z,18.62
2018-08-21T01:19:03.780Z,18.57
2018-08-21T01:20:13.654Z,18.56
2018-08-21T01:21:23.828Z,18.57
2018-08-21T01:22:33.994Z,18.62
2018-08-21T01:23:44.158Z,18.59
2018-08-21T01:24:54.458Z,18.56
2018-08-21T01:26:04.693Z,18.63
2018-08-21T01:27:14.849Z,18.56
2018-08-21T01:28:25.098Z,18.57
2018-08-21T01:29:35.295Z,18.6
2018-08-21T01:30:45.613Z,18.62
2018-08-21T01:31:55.789Z,18.59
2018-08-21T01:33:05.962Z,18.56
2018-08-21T01:34:16.157Z,18.59
2018-08-21T01:35:26.435Z,18.55
2018-08-21T01:36:36.620Z,18.5
2018-08-21T01:37:46.858Z,18.47
2018-08-21T01:38:57.141Z,18.53
2018-08-21T01:40:07.275Z,18.52
2018-08-21T01:41:17.506Z,18.37
2018-08-21T01:42:28.347Z,18.46
2018-08-21T01:43:38.500Z,18.44
2018-08-21T01:44:48.352Z,18.44
2018-08-21T01:45:58.532Z,18.42
2018-08-21T01:47:08.676Z,18.47
2018-08-21T01:48:18.905Z,18.37
2018-08-21T01:49:29.092Z,18.38
2018-08-21T01:50:39.339Z,18.35
2018-08-21T01:51:49.199Z,18.35
2018-08-21T01:52:59.363Z,18.4
2018-08-21T01:54:09.500Z,18.34
2018-08-21T01:55:19.702Z,18.42
2018-08-21T01:56:29.941Z,18.41
2018-08-21T01:57:40.097Z,18.26
2018-08-21T01:58:50.227Z,18.31
2018-08-21T02:00:00.355Z,18.42
2018-08-21T02:01:10.473Z,18.4
2018-08-21T02:02:20.629Z,18.4
2018-08-21T02:03:30.803Z,18.35
2018-08-21T02:04:41.011Z,18.34
2018-08-21T02:05:51.234Z,18.3
2018-08-21T02:07:01.120Z,18.3
2018-08-21T02:08:11.243Z,18.3
2018-08-21T02:09:21.381Z,18.28
2018-08-21T02:10:31.662Z,18.28
2018-08-21T02:11:41.832Z,18.2
2018-08-21T02:12:52.032Z,18.31
2018-08-21T02:14:02.225Z,18.25
2018-08-21T02:15:12.376Z,18.25
2018-08-21T02:16:22.525Z,18.17
2018-08-21T02:17:32.877Z,18.19
2018-08-21T02:18:43.085Z,18.17
2018-08-21T02:19:53.338Z,18.19
2018-08-21T02:21:03.581Z,18.12
2018-08-21T02:22:13.777Z,18.15
2018-08-21T02:23:24.162Z,18.15
2018-08-21T02:24:34.284Z,18.19
2018-08-21T02:25:44.469Z,18.09
2018-08-21T02:26:54.589Z,18.12
2018-08-21T02:28:04.534Z,18.13
2018-08-21T02:29:14.724Z,18.16
2018-08-21T02:30:24.890Z,18.13
2018-08-21T02:31:35.188Z,18.07
2018-08-21T02:32:45.110Z,18.1
2018-08-21T02:33:55.219Z,18.1
2018-08-21T02:35:05.472Z,18.05
2018-08-21T02:36:15.608Z,18.02
2018-08-21T02:37:25.822Z,18.13
2018-08-21T02:38:35.945Z,18.15
2018-08-21T02:39:46.157Z,18.01
2018-08-21T02:40:56.295Z,18.04
2018-08-21T02:42:06.425Z,18.07
2018-08-21T02:43:16.044Z,18.04
2018-08-21T02:44:26.244Z,18.01
2018-08-21T02:45:36.414Z,18.01
2018-08-21T02:46:46.536Z,18
2018-08-21T02:47:56.403Z,17.98
2018-08-21T02:49:06.546Z,17.95
2018-08-21T02:50:16.756Z,18
2018-08-21T02:51:26.921Z,18
2018-08-21T02:52:37.152Z,17.89
2018-08-21T02:53:47.036Z,17.87
2018-08-21T02:54:56.927Z,17.89
2018-08-21T02:56:07.042Z,17.94
2018-08-21T02:57:16.963Z,17.89
2018-08-21T02:58:26.732Z,17.89
2018-08-21T02:59:36.893Z,17.89
2018-08-21T03:00:47.014Z,17.92
2018-08-21T03:01:57.171Z,17.89
2018-08-21T03:03:07.350Z,17.87
2018-08-21T03:04:17.513Z,17.89
2018-08-21T03:05:27.286Z,17.91
2018-08-21T03:06:37.183Z,17.89
2018-08-21T03:07:47.316Z,17.87
2018-08-21T03:08:57.449Z,17.86
2018-08-21T03:10:07.312Z,17.85
2018-08-21T03:11:17.461Z,17.83
2018-08-21T03:12:27.372Z,17.87
2018-08-21T03:13:37.518Z,17.87
2018-08-21T03:14:47.660Z,17.89
2018-08-21T03:15:57.796Z,17.8
2018-08-21T03:17:07.910Z,17.82
2018-08-21T03:18:18.700Z,17.86
2018-08-21T03:19:28.669Z,17.75
2018-08-21T03:20:38.800Z,17.86
2018-08-21T03:21:49.183Z,17.8
2018-08-21T03:22:59.648Z,17.77
2018-08-21T03:24:09.805Z,17.72
2018-08-21T03:25:19.673Z,17.77
2018-08-21T03:26:29.549Z,17.73
2018-08-21T03:27:41.095Z,17.76
2018-08-21T03:28:51.219Z,17.73
2018-08-21T03:30:01.395Z,17.77
2018-08-21T03:31:11.306Z,17.8
2018-08-21T03:32:21.454Z,17.73
2018-08-21T03:33:31.584Z,17.73
2018-08-21T03:34:41.738Z,17.73
2018-08-21T03:35:51.877Z,17.76
2018-08-21T03:37:02.177Z,17.76
2018-08-21T03:38:12.388Z,17.77
2018-08-21T03:39:22.549Z,17.72
2018-08-21T03:40:32.331Z,17.64
2018-08-21T03:41:42.598Z,17.77
2018-08-21T03:42:52.872Z,17.72
2018-08-21T03:44:03.152Z,17.75
2018-08-21T03:45:14.277Z,17.73
2018-08-21T03:46:24.446Z,17.76
2018-08-21T03:47:35.004Z,17.68
2018-08-21T03:48:45.150Z,17.73
2018-08-21T03:49:55.261Z,17.73
2018-08-21T03:51:05.190Z,17.72
2018-08-21T03:52:15.317Z,17.75
2018-08-21T03:53:25.097Z,17.73
2018-08-21T03:54:35.073Z,17.73
2018-08-21T03:55:44.953Z,17.72
2018-08-21T03:56:54.482Z,17.68
2018-08-21T03:58:04.655Z,17.73
2018-08-21T03:59:14.811Z,17.75
2018-08-21T04:00:24.960Z,17.68
2018-08-21T04:01:35.104Z,17.8
2018-08-21T04:02:46.215Z,17.62
2018-08-21T04:03:56.387Z,17.72
2018-08-21T04:05:06.291Z,17.73
2018-08-21T04:06:16.809Z,17.67
2018-08-21T04:07:26.929Z,17.67
2018-08-21T04:08:37.113Z,17.7
2018-08-21T04:09:47.265Z,17.61
2018-08-21T04:10:57.447Z,17.61
2018-08-21T04:12:07.607Z,17.64
2018-08-21T04:13:17.730Z,17.64
2018-08-21T04:14:27.888Z,17.61
2018-08-21T04:15:38.019Z,17.61
2018-08-21T04:16:48.177Z,17.61
2018-08-21T04:17:58.011Z,17.58
2018-08-21T04:19:08.289Z,17.58
2018-08-21T04:20:19.130Z,17.61
2018-08-21T04:21:29.005Z,17.62
2018-08-21T04:22:39.130Z,17.65
2018-08-21T04:23:48.647Z,17.57
2018-08-21T04:24:58.904Z,17.61
2018-08-21T04:26:08.763Z,17.62
2018-08-21T04:27:18.938Z,17.58
2018-08-21T04:28:29.087Z,17.58
2018-08-21T04:29:38.960Z,17.55
2018-08-21T04:30:48.829Z,17.58
2018-08-21T04:31:58.975Z,17.58
2018-08-21T04:33:08.846Z,17.57
2018-08-21T04:34:18.987Z,17.58
2018-08-21T04:35:28.998Z,17.49
2018-08-21T04:36:39.200Z,17.43
2018-08-21T04:37:49.409Z,17.5
2018-08-21T04:38:59.358Z,17.47
2018-08-21T04:40:09.510Z,17.46
2018-08-21T04:41:20.615Z,17.49
2018-08-21T04:42:30.755Z,17.38
2018-08-21T04:43:40.869Z,17.45
2018-08-21T04:44:51.031Z,17.45
2018-08-21T04:46:00.794Z,17.39
2018-08-21T04:47:10.662Z,17.42
2018-08-21T04:48:20.805Z,17.49
2018-08-21T04:49:30.932Z,17.49
2018-08-21T04:50:41.059Z,17.4
2018-08-21T04:51:51.195Z,17.47
2018-08-21T04:53:01.343Z,17.46
2018-08-21T04:54:11.503Z,17.43
2018-08-21T04:55:21.706Z,17.46
2018-08-21T04:56:31.519Z,17.46
2018-08-21T04:57:41.708Z,17.42
2018-08-21T04:58:52.296Z,17.46
2018-08-21T05:00:02.691Z,17.4
2018-08-21T05:01:12.926Z,17.46
2018-08-21T05:02:23.354Z,17.47
2018-08-21T05:03:33.455Z,17.43
2018-08-21T05:04:43.583Z,17.47
2018-08-21T05:05:53.913Z,17.39
2018-08-21T05:07:04.066Z,17.39
2018-08-21T05:08:14.257Z,17.45
2018-08-21T05:09:24.406Z,17.42
2018-08-21T05:10:34.623Z,17.45
2018-08-21T05:11:45.014Z,17.45
2018-08-21T05:12:55.185Z,17.36
2018-08-21T05:14:05.358Z,17.36
2018-08-21T05:15:15.502Z,17.28
2018-08-21T05:16:25.395Z,17.39
2018-08-21T05:17:35.530Z,17.36
2018-08-21T05:18:45.671Z,17.3
2018-08-21T05:19:55.834Z,17.23
2018-08-21T05:21:07.076Z,17.28
2018-08-21T05:22:17.255Z,17.39
2018-08-21T05:23:27.448Z,17.35
2018-08-21T05:24:37.618Z,17.31
2018-08-21T05:25:47.814Z,17.2
2018-08-21T05:26:57.928Z,17.24
2018-08-21T05:28:08.060Z,17.31
2018-08-21T05:29:17.560Z,17.3
2018-08-21T05:30:27.794Z,17.31
2018-08-21T05:31:37.972Z,17.24
2018-08-21T05:32:48.106Z,17.32
2018-08-21T05:33:57.991Z,17.31
2018-08-21T05:35:08.172Z,17.32
2018-08-21T05:36:18.318Z,17.42
2018-08-21T05:37:28.438Z,17.39
2018-08-21T05:38:38.607Z,17.4
2018-08-21T05:39:48.765Z,17.46
2018-08-21T05:40:58.976Z,17.42
2018-08-21T05:42:09.143Z,17.4
2018-08-21T05:43:19.296Z,17.4
2018-08-21T05:44:29.550Z,17.36
2018-08-21T05:45:39.899Z,17.47
2018-08-21T05:46:50.055Z,17.45
2018-08-21T05:48:00.258Z,17.47
2018-08-21T05:49:10.129Z,17.43
2018-08-21T05:50:20.285Z,17.45
2018-08-21T05:51:30.419Z,17.45
2018-08-21T05:52:40.614Z,17.52
2018-08-21T05:53:50.769Z,17.54
2018-08-21T05:55:00.653Z,17.5
2018-08-21T05:56:10.786Z,17.5
2018-08-21T05:57:20.698Z,17.47
2018-08-21T05:58:30.546Z,17.54
2018-08-21T05:59:41.094Z,17.61
2018-08-21T06:00:51.011Z,17.55
2018-08-21T06:02:00.895Z,17.6
2018-08-21T06:03:10.812Z,17.58
2018-08-21T06:04:21.020Z,17.62
2018-08-21T06:05:31.236Z,17.5
2018-08-21T06:06:41.414Z,17.55
2018-08-21T06:07:51.326Z,17.55
2018-08-21T06:09:01.533Z,17.58
2018-08-21T06:10:11.656Z,17.6
2018-08-21T06:11:21.779Z,17.62
2018-08-21T06:12:31.673Z,17.62
2018-08-21T06:13:41.831Z,17.68
2018-08-21T06:14:51.600Z,17.77
2018-08-21T06:16:01.573Z,17.76
2018-08-21T06:17:11.714Z,17.75
2018-08-21T06:18:22.047Z,17.72
2018-08-21T06:19:32.396Z,17.73
2018-08-21T06:20:42.566Z,17.8
2018-08-21T06:21:52.711Z,17.76
2018-08-21T06:23:03.138Z,17.67
2018-08-21T06:24:13.281Z,17.76
2018-08-21T06:25:23.404Z,17.7
2018-08-21T06:26:33.734Z,17.77
2018-08-21T06:27:43.384Z,17.73
2018-08-21T06:28:53.652Z,17.73
2018-08-21T06:30:03.887Z,17.77
2018-08-21T06:31:14.093Z,17.83
2018-08-21T06:32:23.982Z,17.85
2018-08-21T06:33:33.905Z,17.89
2018-08-21T06:34:44.292Z,17.83
2018-08-21T06:35:54.464Z,17.87
2018-08-21T06:37:04.692Z,17.86
2018-08-21T06:38:15.338Z,17.91
2018-08-21T06:39:25.696Z,17.98
2018-08-21T06:40:35.265Z,17.95
2018-08-21T06:41:45.242Z,18.02
2018-08-21T06:42:55.381Z,18.09
2018-08-21T06:44:05.600Z,18.1
2018-08-21T06:45:15.565Z,18.12
2018-08-21T06:46:25.727Z,18.13
2018-08-21T06:47:36.029Z,18.13
2018-08-21T06:48:46.139Z,18.28
2018-08-21T06:49:56.273Z,18.25
2018-08-21T06:51:06.474Z,18.35
2018-08-21T06:52:16.660Z,18.44
2018-08-21T06:53:26.795Z,18.31
2018-08-21T06:54:36.935Z,18.35
2018-08-21T06:55:47.116Z,18.44
2018-08-21T06:56:57.234Z,18.41
2018-08-21T06:58:07.379Z,18.55
2018-08-21T06:59:18.568Z,18.56
2018-08-21T07:00:28.718Z,18.53
2018-08-21T07:01:38.652Z,18.55
2018-08-21T07:02:48.793Z,18.57
2018-08-21T07:03:58.856Z,18.57
2018-08-21T07:05:08.754Z,18.59
2018-08-21T07:06:18.872Z,18.49
2018-08-21T07:07:29.625Z,18.38
2018-08-21T07:08:39.782Z,18.32
2018-08-21T07:09:49.923Z,18.38
2018-08-21T07:10:59.834Z,18.34
2018-08-21T07:12:09.963Z,18.23
2018-08-21T07:13:20.282Z,18.23
2018-08-21T07:14:30.576Z,18.07
2018-08-21T07:15:41.142Z,18.09
2018-08-21T07:16:51.043Z,18.12
2018-08-21T07:18:01.169Z,18.1
2018-08-21T07:19:11.331Z,18.16
2018-08-21T07:20:21.245Z,18.13
2018-08-21T07:21:31.365Z,18.19
2018-08-21T07:22:41.501Z,18.12
2018-08-21T07:23:51.644Z,18.12
2018-08-21T07:25:01.924Z,18.17
2018-08-21T07:26:12.104Z,18.01
2018-08-21T07:27:22.423Z,18.02
2018-08-21T07:28:32.572Z,18.05
2018-08-21T07:29:42.768Z,17.94
2018-08-21T07:30:52.978Z,17.97
2018-08-21T07:32:02.757Z,17.85
2018-08-21T07:33:12.938Z,18.07
2018-08-21T07:34:22.826Z,18.04
2018-08-21T07:35:33.534Z,18.12
2018-08-21T07:36:43.422Z,18.15
2018-08-21T07:37:53.322Z,18.23
2018-08-21T07:39:03.468Z,18.4
2018-08-21T07:40:14.724Z,18.35
2018-08-21T07:41:24.946Z,18.4
2018-08-21T07:42:35.121Z,18.59
2018-08-21T07:43:45.241Z,18.55
2018-08-21T07:44:55.361Z,18.59
2018-08-21T07:46:05.488Z,18.65
2018-08-21T07:47:15.694Z,18.71
2018-08-21T07:48:25.580Z,18.67
2018-08-21T07:49:35.731Z,18.84
2018-08-21T07:50:45.859Z,18.8
2018-08-21T07:51:56.017Z,18.88
2018-08-21T07:53:06.238Z,18.95
2018-08-21T07:54:16.428Z,18.97
2018-08-21T07:55:26.647Z,19.09
2018-08-21T07:56:36.881Z,19.15
2018-08-21T07:57:47.068Z,19.23
2018-08-21T07:58:57.006Z,19.4
2018-08-21T08:00:07.416Z,19.45
2018-08-21T08:01:17.543Z,19.61
2018-08-21T08:02:27.548Z,19.63
2018-08-21T08:03:37.823Z,19.8
2018-08-21T08:04:47.998Z,19.85
2018-08-21T08:05:58.297Z,19.85
2018-08-21T08:07:08.435Z,20.01
2018-08-21T08:08:18.466Z,20.11
2018-08-21T08:09:28.627Z,20.21
2018-08-21T08:10:38.796Z,20.36
2018-08-21T08:11:49.136Z,21.13
2018-08-21T08:12:59.035Z,21.86
2018-08-21T08:14:09.761Z,22.61
2018-08-21T08:15:19.926Z,23.14
2018-08-21T08:16:29.852Z,23.16
2018-08-21T08:17:39.988Z,23.16
2018-08-21T08:18:49.799Z,23.17
2018-08-21T08:20:00.036Z,23.08
2018-08-21T08:21:10.296Z,23.01
2018-08-21T08:22:20.453Z,22.9
2018-08-21T08:23:30.710Z,22.89
2018-08-21T08:24:41.301Z,23.01
2018-08-21T08:25:51.440Z,23.03
2018-08-21T08:27:01.334Z,23.06
2018-08-21T08:28:11.549Z,23.01
2018-08-21T08:29:21.542Z,22.9
2018-08-21T08:30:31.621Z,23.18
2018-08-21T08:31:41.753Z,23.55
2018-08-21T08:32:51.894Z,24.05
2018-08-21T08:34:02.025Z,24.54
2018-08-21T08:35:12.190Z,25.07
2018-08-21T08:36:22.459Z,25.52
2018-08-21T08:37:32.629Z,25.94
2018-08-21T08:38:42.850Z,26.37
2018-08-21T08:39:52.999Z,26.99
2018-08-21T08:41:03.129Z,27.34
2018-08-21T08:42:13.019Z,27.71
2018-08-21T08:43:23.184Z,28.08
2018-08-21T08:44:33.357Z,28.36
2018-08-21T08:45:43.249Z,28.74
2018-08-21T08:46:53.396Z,28.92
2018-08-21T08:48:03.329Z,29.01
2018-08-21T08:49:13.506Z,29.17
2018-08-21T08:50:23.818Z,29.33
2018-08-21T08:51:33.971Z,29.38
2018-08-21T08:52:44.139Z,29.5
2018-08-21T08:53:54.410Z,29.14
2018-08-21T08:55:04.606Z,28.73
2018-08-21T08:56:14.859Z,28.56
2018-08-21T08:57:24.738Z,28.61
2018-08-21T08:58:34.897Z,28.64
2018-08-21T08:59:45.242Z,28.61
2018-08-21T09:00:55.387Z,28.31
2018-08-21T09:02:05.539Z,28.32
2018-08-21T09:03:15.673Z,28.09
2018-08-21T09:04:25.806Z,27.9
2018-08-21T09:05:36.033Z,27.76
2018-08-21T09:06:46.186Z,27.49
2018-08-21T09:07:56.329Z,27.46
2018-08-21T09:09:06.497Z,27.63
2018-08-21T09:10:16.722Z,27.68
2018-08-21T09:11:26.935Z,27.55
2018-08-21T09:12:37.085Z,27.48
2018-08-21T09:13:47.031Z,27.14
2018-08-21T09:14:57.179Z,26.78
2018-08-21T09:16:08.349Z,26.52
2018-08-21T09:17:18.511Z,26.24
2018-08-21T09:18:28.755Z,26.04
2018-08-21T09:19:38.905Z,25.84
2018-08-21T09:20:49.053Z,25.73
2018-08-21T09:21:59.197Z,25.93
2018-08-21T09:23:09.360Z,26.18
2018-08-21T09:24:19.728Z,26.48
2018-08-21T09:25:29.894Z,26.88
2018-08-21T09:26:40.213Z,27.37
2018-08-21T09:27:50.378Z,27.94
2018-08-21T09:29:00.171Z,28.34
2018-08-21T09:30:10.335Z,28.5
2018-08-21T09:31:20.562Z,28.96
2018-08-21T09:32:30.768Z,29.32
2018-08-21T09:33:40.642Z,29.55
2018-08-21T09:34:50.811Z,29.94
2018-08-21T09:36:01.201Z,30.08
2018-08-21T09:37:11.196Z,30.23
2018-08-21T09:38:21.656Z,30.41
2018-08-21T09:39:31.792Z,30.3
2018-08-21T09:40:42.080Z,30.59
2018-08-21T09:41:52.267Z,30.76
2018-08-21T09:43:02.153Z,30.76
2018-08-21T09:44:12.063Z,30.75
2018-08-21T09:45:22.318Z,30.72
2018-08-21T09:46:32.519Z,30.75
2018-08-21T09:47:42.589Z,30.91
2018-08-21T09:48:53.591Z,31.13
2018-08-21T09:50:06.223Z,31.09
2018-08-21T09:52:31.373Z,31.65
2018-08-21T09:53:41.645Z,31.8
2018-08-21T09:56:07.102Z,31.61
2018-08-21T09:57:20.511Z,31.58
2018-08-21T10:00:59.095Z,31.84
2018-08-21T10:02:09.262Z,31.87
2018-08-21T10:03:21.109Z,31.84
2018-08-21T10:04:32.487Z,32.1
2018-08-21T10:05:44.182Z,32.02
2018-08-21T10:06:54.735Z,32.29
2018-08-21T10:08:06.136Z,32.25
2018-08-21T10:09:17.569Z,32.31
2018-08-21T10:10:27.539Z,32.19
2018-08-21T10:11:37.753Z,31.98
2018-08-21T10:12:47.600Z,31.58
2018-08-21T10:13:57.837Z,31.76
2018-08-21T10:15:08.049Z,31.63
2018-08-21T10:16:18.299Z,31.51
2018-08-21T10:17:28.113Z,31.25
2018-08-21T10:18:38.315Z,30.79
2018-08-21T10:19:49.938Z,30.41
2018-08-21T10:21:00.106Z,30.16
2018-08-21T10:22:10.346Z,30.07
2018-08-21T10:23:20.160Z,29.89
2018-08-21T10:24:30.320Z,29.85
2018-08-21T10:25:40.495Z,30.04
2018-08-21T10:26:50.407Z,30.22
2018-08-21T10:28:04.309Z,30.44
2018-08-21T10:29:17.112Z,30.61
2018-08-21T10:30:27.268Z,30.81
2018-08-21T10:31:37.197Z,30.98
2018-08-21T10:32:48.400Z,31.09
2018-08-21T10:33:58.552Z,31.18
2018-08-21T10:35:08.851Z,31.28
2018-08-21T10:36:19.004Z,31.31
2018-08-21T10:37:28.859Z,31.31
2018-08-21T10:38:39.006Z,31.25
2018-08-21T10:39:49.157Z,31.04
2018-08-21T10:40:59.306Z,30.78
2018-08-21T10:42:09.470Z,30.37
2018-08-21T10:44:35.425Z,29.65
2018-08-21T10:45:45.629Z,29.33
2018-08-21T10:46:55.869Z,29.11
2018-08-21T10:50:35.363Z,28.67
2018-08-21T10:51:45.543Z,28.46
2018-08-21T10:53:02.237Z,28.17
2018-08-21T10:55:28.709Z,28.19
2018-08-21T10:56:38.597Z,28.02
2018-08-21T10:57:48.519Z,27.89
2018-08-21T10:58:58.691Z,27.57
2018-08-21T11:00:08.958Z,27.45
2018-08-21T11:01:19.137Z,27.58
2018-08-21T11:02:29.290Z,27.61
2018-08-21T11:03:39.437Z,27.48
2018-08-21T11:04:49.626Z,27.31
2018-08-21T11:05:59.799Z,27.08
2018-08-21T11:07:10.027Z,26.99
2018-08-21T11:08:20.191Z,26.92
2018-08-21T11:09:30.112Z,26.82
2018-08-21T11:10:40.296Z,26.67
2018-08-21T11:11:50.188Z,26.77
2018-08-21T11:13:00.325Z,26.95
2018-08-21T11:14:10.477Z,27.17
2018-08-21T11:15:20.670Z,27.58
2018-08-21T11:16:30.836Z,27.86
2018-08-21T11:17:40.991Z,28.2
2018-08-21T11:18:51.212Z,28.19
2018-08-21T11:20:01.393Z,28.01
2018-08-21T11:21:11.997Z,27.76
2018-08-21T11:22:22.469Z,27.71
2018-08-21T11:23:32.733Z,27.63
2018-08-21T11:24:42.900Z,27.72
2018-08-21T11:25:53.054Z,27.8
2018-08-21T11:27:03.221Z,27.63
2018-08-21T11:28:13.460Z,27.72
2018-08-21T11:29:23.688Z,27.74
2018-08-21T11:30:33.861Z,27.7
2018-08-21T11:31:43.744Z,27.72
2018-08-21T11:32:53.897Z,27.53
2018-08-21T11:34:04.169Z,27.33
2018-08-21T11:35:14.095Z,27.19
2018-08-21T11:36:24.257Z,27.01
2018-08-21T11:37:34.425Z,26.99
2018-08-21T11:38:44.608Z,27.08
2018-08-21T11:39:54.770Z,27.37
2018-08-21T11:41:05.042Z,27.67
2018-08-21T11:42:15.213Z,28.01
2018-08-21T11:43:25.438Z,28.29
2018-08-21T11:44:35.665Z,28.61
2018-08-21T11:45:45.987Z,29.07
2018-08-21T11:46:56.163Z,29.39
2018-08-21T11:48:06.436Z,29.62
2018-08-21T11:49:16.790Z,29.57
2018-08-21T11:50:26.966Z,29.5
2018-08-21T11:51:37.122Z,29.7
2018-08-21T11:52:47.319Z,29.94
2018-08-21T11:53:58.933Z,30.03
2018-08-21T11:55:12.660Z,30.08
2018-08-21T11:56:22.841Z,30.17
2018-08-21T11:57:36.566Z,30.23
2018-08-21T11:58:48.671Z,30.37
2018-08-21T11:59:58.728Z,30.48
2018-08-21T12:01:08.938Z,30.33
2018-08-21T12:02:19.149Z,30.2
2018-08-21T12:03:29.559Z,29.85
2018-08-21T12:04:40.289Z,29.53
2018-08-21T12:05:50.449Z,29.44
2018-08-21T12:07:00.348Z,29.43
2018-08-21T12:08:10.517Z,29.48
2018-08-21T12:09:20.700Z,29.54
2018-08-21T12:10:30.867Z,29.67
2018-08-21T12:11:41.022Z,29.75
2018-08-21T12:15:19.540Z,30.41
2018-08-21T12:16:29.832Z,30.45
2018-08-21T12:17:40.044Z,30.48
2018-08-21T12:18:51.385Z,30.47
2018-08-21T12:20:04.607Z,30.33
2018-08-21T12:21:16.168Z,30.44
2018-08-21T12:22:26.330Z,30.59
2018-08-21T12:23:36.588Z,30.7
2018-08-21T12:24:46.981Z,30.85
2018-08-21T12:28:25.950Z,31.2
2018-08-21T12:29:36.098Z,31.09
2018-08-21T12:30:46.000Z,30.79
2018-08-21T12:31:56.263Z,30.6
2018-08-21T12:33:06.484Z,30.35
2018-08-21T12:34:17.136Z,30.11
2018-08-21T12:35:27.443Z,29.77
2018-08-21T12:36:37.620Z,29.51
2018-08-21T12:37:47.553Z,29.38
2018-08-21T12:38:57.738Z,29.01
2018-08-21T12:40:07.914Z,28.77
2018-08-21T12:41:18.084Z,28.45
2018-08-21T12:42:28.256Z,28.19
2018-08-21T12:43:38.475Z,27.87
2018-08-21T12:44:48.364Z,27.72
2018-08-21T12:45:58.257Z,27.61
2018-08-21T12:47:08.420Z,27.5
2018-08-21T12:48:18.584Z,27.52
2018-08-21T12:49:28.734Z,27.58
2018-08-21T12:50:39.397Z,27.7
2018-08-21T12:51:49.573Z,27.86
2018-08-21T12:52:59.750Z,27.87
2018-08-21T12:54:09.570Z,28.05
2018-08-21T12:55:19.465Z,28.19
2018-08-21T12:56:33.879Z,28.31
2018-08-21T12:57:44.037Z,28.32
2018-08-21T12:58:54.226Z,28.29
2018-08-21T13:00:04.835Z,28.24
2018-08-21T13:01:15.049Z,28.26
2018-08-21T13:02:25.314Z,28.23
2018-08-21T13:03:35.722Z,28.13
2018-08-21T13:04:45.704Z,28.24
2018-08-21T13:07:08.769Z,28.09
2018-08-21T13:08:18.950Z,28.07
2018-08-21T13:09:29.186Z,28.11
2018-08-21T13:10:39.387Z,27.97
2018-08-21T13:11:49.614Z,27.89
2018-08-21T13:12:59.870Z,27.74
2018-08-21T13:14:10.119Z,27.67
2018-08-21T13:15:20.331Z,27.63
2018-08-21T13:16:30.527Z,27.57
2018-08-21T13:17:40.744Z,27.42
2018-08-21T13:18:52.678Z,27.37
2018-08-21T13:20:02.847Z,27.26
2018-08-21T13:21:12.800Z,27.28
2018-08-21T13:22:22.989Z,27.27
2018-08-21T13:23:33.030Z,27.17
2018-08-21T13:24:43.304Z,27.03
2018-08-21T13:25:53.825Z,26.93
2018-08-21T13:27:03.492Z,26.74
2018-08-21T13:28:13.763Z,26.75
2018-08-21T13:29:24.169Z,26.75
2018-08-21T13:30:34.126Z,26.8
2018-08-21T13:31:44.321Z,26.75
2018-08-21T13:32:54.822Z,26.67
2018-08-21T13:34:05.218Z,26.59
2018-08-21T13:35:15.472Z,26.52
2018-08-21T13:36:25.862Z,26.39
2018-08-21T13:37:36.292Z,26.41
2018-08-21T13:38:46.456Z,26.37
2018-08-21T13:39:56.617Z,26.37
2018-08-21T13:41:06.737Z,26.36
2018-08-21T13:42:16.885Z,26.25
2018-08-21T13:43:27.043Z,26.22
2018-08-21T13:44:37.443Z,26.16
2018-08-21T13:45:47.605Z,26
2018-08-21T13:46:57.835Z,25.94
2018-08-21T13:48:08.963Z,25.77
2018-08-21T13:49:19.144Z,25.81
2018-08-21T13:50:30.317Z,25.76
2018-08-21T13:51:41.749Z,25.68
2018-08-21T13:52:51.903Z,25.59
2018-08-21T13:54:01.900Z,25.52
2018-08-21T13:55:12.171Z,25.42
2018-08-21T13:56:22.338Z,25.39
2018-08-21T13:57:33.570Z,25.39
2018-08-21T13:58:44.063Z,25.43
2018-08-21T13:59:56.326Z,25.32
2018-08-21T14:01:06.490Z,25.31
2018-08-21T14:02:16.192Z,25.22
2018-08-21T14:03:26.408Z,25.15
2018-08-21T14:04:36.574Z,25.21
2018-08-21T14:05:46.488Z,25.22
2018-08-21T14:06:56.674Z,25.15
2018-08-21T14:08:06.884Z,25.18
2018-08-21T14:09:17.030Z,25.21
2018-08-21T14:10:27.538Z,25.21
2018-08-21T14:11:37.811Z,25.15
2018-08-21T14:12:48.580Z,25.15
2018-08-21T14:13:59.148Z,25.19
2018-08-21T14:15:09.315Z,25.18
2018-08-21T14:16:19.522Z,25.22
2018-08-21T14:17:29.699Z,25.19
2018-08-21T14:18:39.840Z,25.27
2018-08-21T14:19:50.009Z,25.25
2018-08-21T14:21:00.203Z,25.32
2018-08-21T14:22:10.363Z,25.34
2018-08-21T14:23:20.553Z,25.4
2018-08-21T14:24:30.732Z,25.34
2018-08-21T14:25:40.902Z,25.34
2018-08-21T14:26:51.068Z,25.36
2018-08-21T14:28:01.000Z,25.32
2018-08-21T14:29:11.320Z,25.32
2018-08-21T14:30:21.531Z,25.39
2018-08-21T14:31:31.658Z,25.4
2018-08-21T14:32:41.808Z,25.44
2018-08-21T14:33:51.722Z,25.34
2018-08-21T14:35:01.899Z,25.44
2018-08-21T14:36:13.067Z,25.55
2018-08-21T14:37:22.988Z,25.5
2018-08-21T14:38:33.300Z,25.54
2018-08-21T14:39:44.801Z,25.49
2018-08-21T14:40:54.960Z,25.61
2018-08-21T14:42:05.114Z,25.64
2018-08-21T14:43:15.282Z,25.62
2018-08-21T14:44:26.399Z,25.54
2018-08-21T14:45:36.692Z,25.49
2018-08-21T14:46:46.689Z,25.39
2018-08-21T14:47:56.847Z,25.4
2018-08-21T14:49:07.054Z,25.34
2018-08-21T14:50:17.421Z,25.43
2018-08-21T14:51:27.739Z,25.34
2018-08-21T14:52:37.735Z,25.39
2018-08-21T14:53:47.766Z,25.54
2018-08-21T14:54:58.028Z,25.46
2018-08-21T14:56:08.297Z,25.44
2018-08-21T14:57:18.141Z,25.44
2018-08-21T14:58:28.460Z,25.49
2018-08-21T14:59:38.721Z,25.37
2018-08-21T15:00:48.870Z,25.4
2018-08-21T15:01:59.046Z,25.4
2018-08-21T15:03:09.226Z,25.19
2018-08-21T15:04:19.640Z,25.18
2018-08-21T15:05:29.643Z,25.13
2018-08-21T15:06:39.816Z,25.13
2018-08-21T15:07:50.327Z,25.17
2018-08-21T15:09:00.716Z,25.22
2018-08-21T15:10:10.725Z,25.21
2018-08-21T15:11:20.488Z,25.25
2018-08-21T15:12:30.734Z,25.13
2018-08-21T15:13:40.921Z,25.15
2018-08-21T15:14:51.237Z,25.25
2018-08-21T15:16:01.464Z,25.18
2018-08-21T15:17:11.670Z,25.1
2018-08-21T15:18:21.874Z,25.24
2018-08-21T15:19:32.147Z,25.21
2018-08-21T15:20:42.363Z,25.25
2018-08-21T15:21:52.532Z,25.21
2018-08-21T15:23:02.703Z,25.15
2018-08-21T15:24:13.068Z,25.24